Swift Current Airport
CYYN : now visible

Airfield :











YOU CAN JOIN US ON...

 
LOGIN :

Register | Disclaimer

   EN    FR    IT 

 









Legend :    VFR   Marginal VFR   IFR   Intensive IFR   Very Intensive IFR
Visi :
Ceiling :
>= 8 km
>= 3000ft
5 to 8 km
1000 to 3000 ft
1500m to 5 km
500 to 1000 ft
800 to 1500m
200 to 500 ft
< 800m
< 200 ft
Symbols :   Thunderstorms  Fog  Heavy snow  Heavy precipitations  Wind > 20 kt






- Airport Elevation : 2680 ft
- IATA code : YYN


CYYN - Swift Current

CURRENT METAR :
  • 120500Z AUTO 20018G25KT 9SM CLR M12/M17 A2995 RMK ICG INTMT SLP202

EXPIRED METARs :
  • 120400Z AUTO 20018G25KT 9SM FEW220 M13/M18 A2999 RMK ICG SLP219
  • 120300Z AUTO 20018G25KT 9SM CLR M13/M18 A3001 RMK ICG SLP231

TAF TAF CYYN
Valid from the 12 at 00:00 until the 12 at 12:00 UTC


112338Z 1200/1212 20012G22KT P6SM SKC
BECMG 1206/1208 25015KT RMK FCST BASED ON AUTO OBS. NXT FCST BY 120600Z



MET'MAP, your aeronautical weather chart ! - Copyright ORBIFLY December 2007 - Disclaimer

ORBIFLY MET'MAP TEAM :

Programming & Development : Alexandra Zaïnal
Concept & Development : Baudouin d'Aumeries
Co-Development & Prog : Marc-Olivier Méhu
Technical & hardware support : Manuel Goepfert

Contact : metmap@orbifly.com




SOURCES & CREDITS :

   NOAA       Earth
Advisory